sensor_id;sensor_type;location;lat;lon;timestamp;pressure;altitude;pressure_sealevel;temperature;humidity
57799;BME280;43626;53.866;30.298;2024-03-08T00:04:36;1029;;;-1.4;54.8
57799;BME280;43626;53.866;30.298;2024-03-08T00:09:48;1029;;;-1.4;55
57799;BME280;43626;53.866;30.298;2024-03-08T00:14:29;1029;;;-1.4;55
57799;BME280;43626;53.866;30.298;2024-03-08T00:19:58;1028.9;;;-1.4;55
57799;BME280;43626;53.866;30.298;2024-03-08T00:25:12;1028.8;;;-1.4;54.9
57799;BME280;43626;53.866;30.298;2024-03-08T00:30:12;1028.7;;;-1.4;54.9
57799;BME280;43626;53.866;30.298;2024-03-08T00:34:38;1028.7;;;-1.4;54.9
57799;BME280;43626;53.866;30.298;2024-03-08T00:40:08;1028.6;;;-1.6;54.9
57799;BME280;43626;53.866;30.298;2024-03-08T00:45:12;1028.5;;;-1.6;55.1
57799;BME280;43626;53.866;30.298;2024-03-08T00:50:12;1028.5;;;-1.7;55.1
57799;BME280;43626;53.866;30.298;2024-03-08T00:55:02;1028.5;;;-1.7;55.1
57799;BME280;43626;53.866;30.298;2024-03-08T01:00:12;1028.5;;;-1.7;55
57799;BME280;43626;53.866;30.298;2024-03-08T01:04:42;1028.5;;;-1.7;55
57799;BME280;43626;53.866;30.298;2024-03-08T01:09:54;1028.4;;;-1.7;55
57799;BME280;43626;53.866;30.298;2024-03-08T01:14:42;1028.4;;;-1.7;54.8
57799;BME280;43626;53.866;30.298;2024-03-08T01:20:12;1028.3;;;-1.8;54.9
57799;BME280;43626;53.866;30.298;2024-03-08T01:24:48;1028.3;;;-1.8;54.9
57799;BME280;43626;53.866;30.298;2024-03-08T01:29:52;1028.3;;;-1.8;54.9
57799;BME280;43626;53.866;30.298;2024-03-08T01:35:02;1028.2;;;-1.8;54.9
57799;BME280;43626;53.866;30.298;2024-03-08T01:39:30;1028.2;;;-1.8;55
57799;BME280;43626;53.866;30.298;2024-03-08T01:44:24;1028.2;;;-1.8;55.1
57799;BME280;43626;53.866;30.298;2024-03-08T01:49:30;1028.1;;;-1.9;55.3
57799;BME280;43626;53.866;30.298;2024-03-08T01:54:50;1028.1;;;-1.9;55.3
57799;BME280;43626;53.866;30.298;2024-03-08T01:59:38;1028;;;-1.9;55.4
57799;BME280;43626;53.866;30.298;2024-03-08T02:05:12;1028;;;-1.8;55.2
57799;BME280;43626;53.866;30.298;2024-03-08T02:09:38;1028;;;-1.8;55.2
57799;BME280;43626;53.866;30.298;2024-03-08T02:15:12;1027.9;;;-1.8;55.2
57799;BME280;43626;53.866;30.298;2024-03-08T02:19:26;1027.9;;;-1.8;55.2
57799;BME280;43626;53.866;30.298;2024-03-08T02:25:02;1027.8;;;-1.9;55.1
57799;BME280;43626;53.866;30.298;2024-03-08T02:29:24;1027.8;;;-1.9;55
57799;BME280;43626;53.866;30.298;2024-03-08T02:34:26;1027.7;;;-1.9;55
57799;BME280;43626;53.866;30.298;2024-03-08T02:39:42;1027.7;;;-2;55
57799;BME280;43626;53.866;30.298;2024-03-08T02:45:12;1027.6;;;-2;55
57799;BME280;43626;53.866;30.298;2024-03-08T02:50:02;1027.6;;;-2;55
57799;BME280;43626;53.866;30.298;2024-03-08T02:55:12;1027.6;;;-2;55.3
57799;BME280;43626;53.866;30.298;2024-03-08T02:59:48;1027.6;;;-2;55.3
57799;BME280;43626;53.866;30.298;2024-03-08T03:04:54;1027.7;;;-2;55.1
57799;BME280;43626;53.866;30.298;2024-03-08T03:09:24;1027.6;;;-2;55.1
57799;BME280;43626;53.866;30.298;2024-03-08T03:14:24;1027.6;;;-2;55.1
57799;BME280;43626;53.866;30.298;2024-03-08T03:19:48;1027.6;;;-2;55.1
57799;BME280;43626;53.866;30.298;2024-03-08T03:24:52;1027.6;;;-2;55.1
57799;BME280;43626;53.866;30.298;2024-03-08T03:29:36;1027.6;;;-2;55.1
57799;BME280;43626;53.866;30.298;2024-03-08T03:34:24;1027.6;;;-2;55.1
57799;BME280;43626;53.866;30.298;2024-03-08T03:40:12;1027.5;;;-2.1;55.4
57799;BME280;43626;53.866;30.298;2024-03-08T03:44:24;1027.5;;;-2.1;55.4
57799;BME280;43626;53.866;30.298;2024-03-08T03:50:12;1027.5;;;-2.1;55.4
57799;BME280;43626;53.866;30.298;2024-03-08T03:54:58;1027.5;;;-2.1;55.4
57799;BME280;43626;53.866;30.298;2024-03-08T03:59:56;1027.4;;;-2.1;55.6
57799;BME280;43626;53.866;30.298;2024-03-08T04:04:42;1027.4;;;-2.1;55.4
57799;BME280;43626;53.866;30.298;2024-03-08T04:09:44;1027.3;;;-2;55.4
57799;BME280;43626;53.866;30.298;2024-03-08T04:15:12;1027.3;;;-2;55.3
57799;BME280;43626;53.866;30.298;2024-03-08T04:20:12;1027.3;;;-1.9;55.3
57799;BME280;43626;53.866;30.298;2024-03-08T04:24:48;1027.3;;;-1.9;55.3
57799;BME280;43626;53.866;30.298;2024-03-08T04:30:12;1027.3;;;-1.9;55.2
57799;BME280;43626;53.866;30.298;2024-03-08T04:35:02;1027.3;;;-1.9;55.2
57799;BME280;43626;53.866;30.298;2024-03-08T04:39:26;1027.2;;;-1.9;55.1
57799;BME280;43626;53.866;30.298;2024-03-08T04:45:12;1027.2;;;-2;55.3
57799;BME280;43626;53.866;30.298;2024-03-08T04:49:30;1027.2;;;-2;55.3
57799;BME280;43626;53.866;30.298;2024-03-08T04:54:24;1027.2;;;-2;55.3
57799;BME280;43626;53.866;30.298;2024-03-08T04:59:24;1027.2;;;-1.9;55.5
57799;BME280;43626;53.866;30.298;2024-03-08T05:04:52;1027.2;;;-1.9;55.5
57799;BME280;43626;53.866;30.298;2024-03-08T05:09:24;1027.2;;;-1.8;55.4
57799;BME280;43626;53.866;30.298;2024-03-08T05:14:52;1027.2;;;-1.8;55.5
57799;BME280;43626;53.866;30.298;2024-03-08T05:19:24;1027.2;;;-1.7;55.5
57799;BME280;43626;53.866;30.298;2024-03-08T05:25:12;1027.2;;;-1.5;55.7
57799;BME280;43626;53.866;30.298;2024-03-08T05:29:58;1027.2;;;-1.5;55.7
57799;BME280;43626;53.866;30.298;2024-03-08T05:34:38;1027.1;;;-1.4;56
57799;BME280;43626;53.866;30.298;2024-03-08T05:39:42;1027.1;;;-1.3;56.2
57799;BME280;43626;53.866;30.298;2024-03-08T05:44:52;1027;;;-1.2;56.3
57799;BME280;43626;53.866;30.298;2024-03-08T05:50:02;1027;;;-0.9;55.8
57799;BME280;43626;53.866;30.298;2024-03-08T05:54:42;1027;;;-0.7;55.3
57799;BME280;43626;53.866;30.298;2024-03-08T06:00:12;1027;;;-0.2;55.1
57799;BME280;43626;53.866;30.298;2024-03-08T06:04:50;1027;;;-0.2;55.1
57799;BME280;43626;53.866;30.298;2024-03-08T06:10:12;1026.9;;;0.2;55.1
57799;BME280;43626;53.866;30.298;2024-03-08T06:14:24;1026.9;;;0.2;55.1
57799;BME280;43626;53.866;30.298;2024-03-08T06:20:12;1026.9;;;0.5;55
57799;BME280;43626;53.866;30.298;2024-03-08T06:24:42;1026.9;;;0.5;55
57799;BME280;43626;53.866;30.298;2024-03-08T06:29:36;1026.9;;;0.6;55
57799;BME280;43626;53.866;30.298;2024-03-08T06:34:24;1026.8;;;0.6;54.9
57799;BME280;43626;53.866;30.298;2024-03-08T06:39:24;1026.9;;;0.7;54.9
57799;BME280;43626;53.866;30.298;2024-03-08T06:44:42;1026.8;;;0.7;54.8
57799;BME280;43626;53.866;30.298;2024-03-08T06:49:30;1026.8;;;0.9;54.8
57799;BME280;43626;53.866;30.298;2024-03-08T06:54:50;1026.8;;;1.1;54.3
57799;BME280;43626;53.866;30.298;2024-03-08T06:59:44;1026.8;;;1.3;54.1
57799;BME280;43626;53.866;30.298;2024-03-08T07:05:12;1026.7;;;1.7;53.7
57799;BME280;43626;53.866;30.298;2024-03-08T07:09:30;1026.7;;;1.7;53.7
57799;BME280;43626;53.866;30.298;2024-03-08T07:15:12;1026.7;;;2.1;53.3
57799;BME280;43626;53.866;30.298;2024-03-08T07:19:52;1026.7;;;2.1;53.3
57799;BME280;43626;53.866;30.298;2024-03-08T07:29:42;1026.7;;;2.3;52.7
57799;BME280;43626;53.866;30.298;2024-03-08T07:35:02;1026.7;;;2.4;52.7
57799;BME280;43626;53.866;30.298;2024-03-08T07:40:12;1026.6;;;2.6;52.1
57799;BME280;43626;53.866;30.298;2024-03-08T07:45:12;1026.6;;;2.8;52.5
57799;BME280;43626;53.866;30.298;2024-03-08T07:49:48;1026.6;;;2.8;52.5
57799;BME280;43626;53.866;30.298;2024-03-08T07:59:30;1026.5;;;3.1;51.8
57799;BME280;43626;53.866;30.298;2024-03-08T08:04:36;1026.5;;;3.1;51.8
57799;BME280;43626;53.866;30.298;2024-03-08T08:09:30;1026.5;;;3.2;51.6
57799;BME280;43626;53.866;30.298;2024-03-08T08:14:36;1026.5;;;3.3;51.4
57799;BME280;43626;53.866;30.298;2024-03-08T08:19:48;1026.5;;;3.4;50.8
57799;BME280;43626;53.866;30.298;2024-03-08T08:25:12;1026.4;;;3.6;50
57799;BME280;43626;53.866;30.298;2024-03-08T08:29:58;1026.4;;;3.6;50
57799;BME280;43626;53.866;30.298;2024-03-08T08:35:12;1026.3;;;3.8;49.4
57799;BME280;43626;53.866;30.298;2024-03-08T08:40:12;1026.3;;;3.9;49.4
57799;BME280;43626;53.866;30.298;2024-03-08T08:44:50;1026.3;;;3.9;49.4
57799;BME280;43626;53.866;30.298;2024-03-08T08:49:52;1026.2;;;4;49.3
57799;BME280;43626;53.866;30.298;2024-03-08T08:54:52;1026.1;;;4.1;48.9
57799;BME280;43626;53.866;30.298;2024-03-08T08:59:50;1026;;;4.1;48.7
57799;BME280;43626;53.866;30.298;2024-03-08T09:04:24;1026;;;4.1;48.9
57799;BME280;43626;53.866;30.298;2024-03-08T09:09:52;1026;;;4.3;48.9
57799;BME280;43626;53.866;30.298;2024-03-08T09:14:42;1025.9;;;4.3;48.5
57799;BME280;43626;53.866;30.298;2024-03-08T09:20:12;1025.9;;;4.6;47.7
57799;BME280;43626;53.866;30.298;2024-03-08T09:24:24;1025.9;;;4.6;47.7
57799;BME280;43626;53.866;30.298;2024-03-08T09:30:12;1025.9;;;4.6;47.1
57799;BME280;43626;53.866;30.298;2024-03-08T09:34:24;1025.9;;;4.6;47.1
57799;BME280;43626;53.866;30.298;2024-03-08T09:39:58;1025.8;;;4.7;47.2
57799;BME280;43626;53.866;30.298;2024-03-08T09:44:44;1025.8;;;4.8;47.1
57799;BME280;43626;53.866;30.298;2024-03-08T09:49:24;1025.7;;;4.8;46.9
57799;BME280;43626;53.866;30.298;2024-03-08T09:54:24;1025.7;;;4.9;47
57799;BME280;43626;53.866;30.298;2024-03-08T09:59:30;1025.7;;;4.9;47
57799;BME280;43626;53.866;30.298;2024-03-08T10:04:30;1025.7;;;5.1;46.9
57799;BME280;43626;53.866;30.298;2024-03-08T10:09:38;1025.7;;;5.1;46.6
57799;BME280;43626;53.866;30.298;2024-03-08T10:15:12;1025.7;;;5.2;46
57799;BME280;43626;53.866;30.298;2024-03-08T10:19:50;1025.7;;;5.2;46
57799;BME280;43626;53.866;30.298;2024-03-08T10:25:12;1025.7;;;5.3;46
57799;BME280;43626;53.866;30.298;2024-03-08T10:29:58;1025.7;;;5.3;46
57799;BME280;43626;53.866;30.298;2024-03-08T10:34:44;1025.6;;;5.3;45.7
57799;BME280;43626;53.866;30.298;2024-03-08T10:39:24;1025.6;;;5.4;45.8
57799;BME280;43626;53.866;30.298;2024-03-08T10:44:53;1025.6;;;5.5;46.1
57799;BME280;43626;53.866;30.298;2024-03-08T10:50:16;1025.6;;;5.7;46.1
57799;BME280;43626;53.866;30.298;2024-03-08T10:55:12;1025.6;;;5.6;45.9
57799;BME280;43626;53.866;30.298;2024-03-08T10:59:24;1025.6;;;5.6;45.9
57799;BME280;43626;53.866;30.298;2024-03-08T11:05:13;1025.4;;;5.8;45.9
57799;BME280;43626;53.866;30.298;2024-03-08T11:09:27;1025.4;;;5.8;45.9
57799;BME280;43626;53.866;30.298;2024-03-08T11:14:59;1025.5;;;5.8;44.4
57799;BME280;43626;53.866;30.298;2024-03-08T11:19:48;1025.4;;;5.7;44
57799;BME280;43626;53.866;30.298;2024-03-08T11:24:24;1025.3;;;5.7;43.5
57799;BME280;43626;53.866;30.298;2024-03-08T11:30:12;1025.2;;;5.9;42.9
57799;BME280;43626;53.866;30.298;2024-03-08T11:34:24;1025.2;;;5.9;42.9
57799;BME280;43626;53.866;30.298;2024-03-08T11:40:12;1025.2;;;5.9;43.6
57799;BME280;43626;53.866;30.298;2024-03-08T11:44:58;1025.2;;;5.9;43.6
57799;BME280;43626;53.866;30.298;2024-03-08T11:50:12;1025.3;;;6.1;42.8
57799;BME280;43626;53.866;30.298;2024-03-08T11:54:51;1025.3;;;6.1;42.8
57799;BME280;43626;53.866;30.298;2024-03-08T12:00:14;1025.3;;;6.3;42.5
57799;BME280;43626;53.866;30.298;2024-03-08T12:04:58;1025.3;;;6.3;42.5
57799;BME280;43626;53.866;30.298;2024-03-08T12:09:38;1025.3;;;6.3;41.8
57799;BME280;43626;53.866;30.298;2024-03-08T12:14:42;1025.3;;;6.4;40.8
57799;BME280;43626;53.866;30.298;2024-03-08T12:19:52;1025.3;;;6.4;40.5
57799;BME280;43626;53.866;30.298;2024-03-08T12:25:12;1025.2;;;6.5;40.3
57799;BME280;43626;53.866;30.298;2024-03-08T12:30:16;1025.2;;;6.6;39.8
57799;BME280;43626;53.866;30.298;2024-03-08T12:34:51;1025.2;;;6.6;39.8
57799;BME280;43626;53.866;30.298;2024-03-08T12:40:12;1025.2;;;6.8;40.1
57799;BME280;43626;53.866;30.298;2024-03-08T12:45:12;1025.1;;;6.9;40.3
57799;BME280;43626;53.866;30.298;2024-03-08T12:49:44;1025.1;;;6.9;40.3
57799;BME280;43626;53.866;30.298;2024-03-08T12:55:12;1025.1;;;6.9;39.5
57799;BME280;43626;53.866;30.298;2024-03-08T12:59:24;1025.1;;;6.9;39.5
57799;BME280;43626;53.866;30.298;2024-03-08T13:04:42;1025;;;6.8;39.4
57799;BME280;43626;53.866;30.298;2024-03-08T13:09:32;1025;;;6.9;39.3
57799;BME280;43626;53.866;30.298;2024-03-08T13:14:31;1025;;;6.9;39.7
57799;BME280;43626;53.866;30.298;2024-03-08T13:19:24;1024.9;;;6.9;39.7
57799;BME280;43626;53.866;30.298;2024-03-08T13:24:40;1024.9;;;6.9;39.8
57799;BME280;43626;53.866;30.298;2024-03-08T13:29:38;1024.9;;;6.8;40
57799;BME280;43626;53.866;30.298;2024-03-08T13:35:00;1024.9;;;6.8;40.2
57799;BME280;43626;53.866;30.298;2024-03-08T13:39:58;1024.9;;;6.8;40
57799;BME280;43626;53.866;30.298;2024-03-08T13:44:58;1024.8;;;6.7;39.8
57799;BME280;43626;53.866;30.298;2024-03-08T13:49:42;1024.8;;;6.7;40.4
57799;BME280;43626;53.866;30.298;2024-03-08T13:54:52;1024.8;;;6.7;40.7
57799;BME280;43626;53.866;30.298;2024-03-08T14:00:02;1024.7;;;6.7;40.8
57799;BME280;43626;53.866;30.298;2024-03-08T14:04:42;1024.7;;;6.6;41.4
57799;BME280;43626;53.866;30.298;2024-03-08T14:10:02;1024.7;;;6.6;41.8
57799;BME280;43626;53.866;30.298;2024-03-08T14:14:58;1024.7;;;6.6;41.4
57799;BME280;43626;53.866;30.298;2024-03-08T14:20:12;1024.7;;;6.6;40.6
57799;BME280;43626;53.866;30.298;2024-03-08T14:25:02;1024.7;;;6.6;40.6
57799;BME280;43626;53.866;30.298;2024-03-08T14:30:02;1024.7;;;6.6;40.1
57799;BME280;43626;53.866;30.298;2024-03-08T14:34:58;1024.7;;;6.5;40
57799;BME280;43626;53.866;30.298;2024-03-08T14:39:36;1024.7;;;6.4;40
57799;BME280;43626;53.866;30.298;2024-03-08T14:44:48;1024.7;;;6.3;39.9
57799;BME280;43626;53.866;30.298;2024-03-08T14:49:30;1024.7;;;6.3;39.8
57799;BME280;43626;53.866;30.298;2024-03-08T14:54:48;1024.8;;;6.2;39.5
57799;BME280;43626;53.866;30.298;2024-03-08T14:59:24;1024.7;;;6.1;39.1
57799;BME280;43626;53.866;30.298;2024-03-08T15:04:26;1024.7;;;6;38.9
57799;BME280;43626;53.866;30.298;2024-03-08T15:10:12;1024.7;;;5.9;39.2
57799;BME280;43626;53.866;30.298;2024-03-08T15:15:12;1024.7;;;5.9;38.4
57799;BME280;43626;53.866;30.298;2024-03-08T15:19:38;1024.7;;;5.9;38.4
57799;BME280;43626;53.866;30.298;2024-03-08T15:24:26;1024.7;;;5.8;38.6
57799;BME280;43626;53.866;30.298;2024-03-08T15:30:12;1024.8;;;5.6;39.2
57799;BME280;43626;53.866;30.298;2024-03-08T15:35:02;1024.8;;;5.6;39.2
57799;BME280;43626;53.866;30.298;2024-03-08T15:39:42;1024.8;;;5.6;39.4
57799;BME280;43626;53.866;30.298;2024-03-08T15:45:02;1024.8;;;5.6;39.7
57799;BME280;43626;53.866;30.298;2024-03-08T15:49:32;1024.8;;;5.6;39.8
57799;BME280;43626;53.866;30.298;2024-03-08T15:55:14;1024.9;;;5.4;40.3
57799;BME280;43626;53.866;30.298;2024-03-08T15:59:48;1024.9;;;5.4;40.3
57799;BME280;43626;53.866;30.298;2024-03-08T16:05:03;1024.9;;;5.4;40.6
57799;BME280;43626;53.866;30.298;2024-03-08T16:09:24;1025;;;5.3;40.9
57799;BME280;43626;53.866;30.298;2024-03-08T16:15:02;1025;;;5.2;41.4
57799;BME280;43626;53.866;30.298;2024-03-08T16:19:30;1025;;;5.2;41.6
57799;BME280;43626;53.866;30.298;2024-03-08T16:24:42;1025;;;5.2;41.7
57799;BME280;43626;53.866;30.298;2024-03-08T16:29:24;1025.1;;;5.1;41.8
57799;BME280;43626;53.866;30.298;2024-03-08T16:34:24;1025.1;;;5;42.1
57799;BME280;43626;53.866;30.298;2024-03-08T16:39:58;1025.1;;;4.8;42.4
57799;BME280;43626;53.866;30.298;2024-03-08T16:45:12;1025.2;;;4.6;44
57799;BME280;43626;53.866;30.298;2024-03-08T16:50:14;1025.3;;;4.5;44.9
57799;BME280;43626;53.866;30.298;2024-03-08T16:54:30;1025.3;;;4.5;44.9
57799;BME280;43626;53.866;30.298;2024-03-08T16:59:52;1025.3;;;4.5;45.7
57799;BME280;43626;53.866;30.298;2024-03-08T17:05:12;1025.4;;;4.2;47.1
57799;BME280;43626;53.866;30.298;2024-03-08T17:09:44;1025.4;;;4.2;47.1
57799;BME280;43626;53.866;30.298;2024-03-08T17:14:36;1025.4;;;4.1;47.7
57799;BME280;43626;53.866;30.298;2024-03-08T17:19:52;1025.4;;;4;47.8
57799;BME280;43626;53.866;30.298;2024-03-08T17:24:42;1025.4;;;3.9;48.1
57799;BME280;43626;53.866;30.298;2024-03-08T17:30:12;1025.4;;;3.7;48.8
57799;BME280;43626;53.866;30.298;2024-03-08T17:34:24;1025.4;;;3.7;48.8
57799;BME280;43626;53.866;30.298;2024-03-08T17:40:13;1025.4;;;3.5;50
57799;BME280;43626;53.866;30.298;2024-03-08T17:44:48;1025.4;;;3.5;50
57799;BME280;43626;53.866;30.298;2024-03-08T17:50:12;1025.4;;;3.4;52.1
57799;BME280;43626;53.866;30.298;2024-03-08T17:54:30;1025.4;;;3.4;52.1
57799;BME280;43626;53.866;30.298;2024-03-08T17:59:24;1025.4;;;3.4;52.6
57799;BME280;43626;53.866;30.298;2024-03-08T18:04:58;1025.4;;;3.3;53
57799;BME280;43626;53.866;30.298;2024-03-08T18:09:38;1025.4;;;3.4;53.2
57799;BME280;43626;53.866;30.298;2024-03-08T18:14:30;1025.4;;;3.5;53
57799;BME280;43626;53.866;30.298;2024-03-08T18:19:24;1025.5;;;3.6;52.5
57799;BME280;43626;53.866;30.298;2024-03-08T18:25:12;1025.5;;;3.6;52.4
57799;BME280;43626;53.866;30.298;2024-03-08T18:29:58;1025.5;;;3.6;52.4
57799;BME280;43626;53.866;30.298;2024-03-08T18:35:12;1025.5;;;3.6;52.5
57799;BME280;43626;53.866;30.298;2024-03-08T18:39:58;1025.5;;;3.6;52.5
57799;BME280;43626;53.866;30.298;2024-03-08T18:45:00;1025.5;;;3.5;52.9
57799;BME280;43626;53.866;30.298;2024-03-08T18:49:42;1025.5;;;3.6;53.1
57799;BME280;43626;53.866;30.298;2024-03-08T18:54:32;1025.5;;;3.6;52.7
57799;BME280;43626;53.866;30.298;2024-03-08T19:00:15;1025.6;;;3.7;51.5
57799;BME280;43626;53.866;30.298;2024-03-08T19:05:12;1025.6;;;3.6;51
57799;BME280;43626;53.866;30.298;2024-03-08T19:09:24;1025.6;;;3.6;51
57799;BME280;43626;53.866;30.298;2024-03-08T19:15:12;1025.7;;;3.5;50.9
57799;BME280;43626;53.866;30.298;2024-03-08T19:20:12;1025.8;;;3.4;51
57799;BME280;43626;53.866;30.298;2024-03-08T19:24:58;1025.8;;;3.4;51
57799;BME280;43626;53.866;30.298;2024-03-08T19:29:56;1025.8;;;3.4;51
57799;BME280;43626;53.866;30.298;2024-03-08T19:34:53;1025.8;;;3.4;51.1
57799;BME280;43626;53.866;30.298;2024-03-08T19:39:24;1025.9;;;3.3;51.2
57799;BME280;43626;53.866;30.298;2024-03-08T19:45:14;1026;;;3.2;51.8
57799;BME280;43626;53.866;30.298;2024-03-08T19:49:44;1026;;;3.2;51.8
57799;BME280;43626;53.866;30.298;2024-03-08T19:54:24;1026;;;3;52.4
57799;BME280;43626;53.866;30.298;2024-03-08T19:59:56;1026;;;2.8;52.8
57799;BME280;43626;53.866;30.298;2024-03-08T20:04:24;1026;;;2.7;53.1
57799;BME280;43626;53.866;30.298;2024-03-08T20:10:15;1026.1;;;2.7;52.9
57799;BME280;43626;53.866;30.298;2024-03-08T20:15:00;1026.1;;;2.7;52.9
57799;BME280;43626;53.866;30.298;2024-03-08T20:20:04;1026.2;;;2.6;52.6
57799;BME280;43626;53.866;30.298;2024-03-08T20:24:56;1026.2;;;2.6;52.6
57799;BME280;43626;53.866;30.298;2024-03-08T20:35:14;1026.4;;;2.3;53.2
57799;BME280;43626;53.866;30.298;2024-03-08T20:40:12;1026.4;;;2.3;53.5
57799;BME280;43626;53.866;30.298;2024-03-08T20:44:24;1026.4;;;2.3;53.5
57799;BME280;43626;53.866;30.298;2024-03-08T20:50:14;1026.3;;;2.2;53.8
57799;BME280;43626;53.866;30.298;2024-03-08T20:55:14;1026.4;;;2.1;53.9
57799;BME280;43626;53.866;30.298;2024-03-08T21:00:00;1026.4;;;2.1;53.9
57799;BME280;43626;53.866;30.298;2024-03-08T21:05:12;1026.4;;;1.9;54
57799;BME280;43626;53.866;30.298;2024-03-08T21:09:32;1026.4;;;1.9;54
57799;BME280;43626;53.866;30.298;2024-03-08T21:14:24;1026.3;;;1.8;54.2
57799;BME280;43626;53.866;30.298;2024-03-08T21:19:32;1026.4;;;1.7;54.4
57799;BME280;43626;53.866;30.298;2024-03-08T21:24:30;1026.4;;;1.6;54.5
57799;BME280;43626;53.866;30.298;2024-03-08T21:29:32;1026.4;;;1.5;54.9
57799;BME280;43626;53.866;30.298;2024-03-08T21:34:54;1026.5;;;1.4;55.4
57799;BME280;43626;53.866;30.298;2024-03-08T21:39:40;1026.5;;;1.4;55.4
57799;BME280;43626;53.866;30.298;2024-03-08T21:45:12;1026.5;;;1.3;55.6
57799;BME280;43626;53.866;30.298;2024-03-08T21:50:00;1026.5;;;1.3;55.6
57799;BME280;43626;53.866;30.298;2024-03-08T21:54:32;1026.5;;;1.5;55.1
57799;BME280;43626;53.866;30.298;2024-03-08T21:59:36;1026.5;;;1.5;54.9
57799;BME280;43626;53.866;30.298;2024-03-08T22:04:42;1026.5;;;1.5;54.7
57799;BME280;43626;53.866;30.298;2024-03-08T22:09:38;1026.6;;;1.5;54.6
57799;BME280;43626;53.866;30.298;2024-03-08T22:14:42;1026.5;;;1.5;54.6
57799;BME280;43626;53.866;30.298;2024-03-08T22:20:05;1026.5;;;1.3;54.9
57799;BME280;43626;53.866;30.298;2024-03-08T22:25:00;1026.5;;;1.3;54.9
57799;BME280;43626;53.866;30.298;2024-03-08T22:30:15;1026.5;;;1.3;55
57799;BME280;43626;53.866;30.298;2024-03-08T22:34:50;1026.5;;;1.3;55
57799;BME280;43626;53.866;30.298;2024-03-08T22:40:05;1026.6;;;1.3;54.9
57799;BME280;43626;53.866;30.298;2024-03-08T22:44:50;1026.6;;;1.3;54.9
57799;BME280;43626;53.866;30.298;2024-03-08T22:49:44;1026.6;;;1.3;54.8
57799;BME280;43626;53.866;30.298;2024-03-08T22:54:24;1026.7;;;1.2;54.9
57799;BME280;43626;53.866;30.298;2024-03-08T22:59:44;1026.7;;;1.2;54.9
57799;BME280;43626;53.866;30.298;2024-03-08T23:04:24;1026.8;;;1.2;54.9
57799;BME280;43626;53.866;30.298;2024-03-08T23:09:24;1026.8;;;1.2;54.9
57799;BME280;43626;53.866;30.298;2024-03-08T23:15:00;1026.8;;;1.2;55
57799;BME280;43626;53.866;30.298;2024-03-08T23:20:12;1026.8;;;1.1;55.4
57799;BME280;43626;53.866;30.298;2024-03-08T23:25:12;1026.8;;;1;55.3
57799;BME280;43626;53.866;30.298;2024-03-08T23:29:40;1026.8;;;1;55.3
57799;BME280;43626;53.866;30.298;2024-03-08T23:34:54;1026.8;;;0.9;55.7
57799;BME280;43626;53.866;30.298;2024-03-08T23:40:15;1026.8;;;1;55.4
57799;BME280;43626;53.866;30.298;2024-03-08T23:45:05;1026.8;;;1;55.2
57799;BME280;43626;53.866;30.298;2024-03-08T23:49:42;1026.8;;;1;55.2
57799;BME280;43626;53.866;30.298;2024-03-08T23:54:55;1026.8;;;1;55.1
57799;BME280;43626;53.866;30.298;2024-03-08T23:59:25;1026.8;;;1;54.9
